createdAt,value
2022-09-14T00:00:45.110Z,6.60
2022-09-14T00:03:11.555Z,7.40
2022-09-14T00:05:37.916Z,7.43
2022-09-14T00:08:04.144Z,8.13
2022-09-14T00:10:30.420Z,8.90
2022-09-14T00:12:56.673Z,8.40
2022-09-14T00:15:22.936Z,7.95
2022-09-14T00:17:49.126Z,12.40
2022-09-14T00:20:15.347Z,7.65
2022-09-14T00:22:41.729Z,8.38
2022-09-14T00:25:08.223Z,9.80
2022-09-14T00:27:34.544Z,10.25
2022-09-14T00:30:00.764Z,7.95
2022-09-14T00:32:27.003Z,8.63
2022-09-14T00:34:53.227Z,10.40
2022-09-14T00:37:19.418Z,9.35
2022-09-14T00:39:45.797Z,12.65
2022-09-14T00:42:14.680Z,9.75
2022-09-14T00:44:40.845Z,12.98
2022-09-14T00:47:07.145Z,13.93
2022-09-14T00:49:37.969Z,13.77
2022-09-14T00:52:04.283Z,15.15
2022-09-14T00:54:31.007Z,10.95
2022-09-14T00:56:58.975Z,13.75
2022-09-14T00:59:27.252Z,13.10
2022-09-14T01:01:53.950Z,14.85
2022-09-14T01:04:20.200Z,14.77
2022-09-14T01:07:00.828Z,15.32
2022-09-14T01:09:27.097Z,15.50
2022-09-14T01:11:53.257Z,15.43
2022-09-14T01:14:25.923Z,16.20
2022-09-14T01:17:01.884Z,13.20
2022-09-14T01:19:28.047Z,13.02
2022-09-14T01:21:55.642Z,13.02
2022-09-14T01:24:26.648Z,12.20
2022-09-14T01:27:05.834Z,16.60
2022-09-14T01:29:37.763Z,18.15
2022-09-14T01:32:07.317Z,19.25
2022-09-14T01:34:53.795Z,20.52
2022-09-14T01:37:24.192Z,18.58
2022-09-14T01:39:53.077Z,18.73
2022-09-14T01:42:21.534Z,18.40
2022-09-14T01:44:49.143Z,20.42
2022-09-14T01:47:18.120Z,21.15
2022-09-14T01:49:47.382Z,20.55
2022-09-14T01:52:19.462Z,21.60
2022-09-14T01:54:56.728Z,21.85
2022-09-14T01:57:24.879Z,20.92
2022-09-14T01:59:52.321Z,23.63
2022-09-14T02:02:32.039Z,22.98
2022-09-14T02:05:07.920Z,24.15
2022-09-14T02:07:34.778Z,23.60
2022-09-14T02:10:03.279Z,19.40
2022-09-14T02:12:29.573Z,25.08
2022-09-14T02:14:55.820Z,22.52
2022-09-14T02:17:22.164Z,22.33
2022-09-14T02:19:52.147Z,25.38
2022-09-14T02:22:18.540Z,19.90
2022-09-14T02:24:44.780Z,20.00
2022-09-14T02:27:11.005Z,19.70
2022-09-14T02:29:37.351Z,21.25
2022-09-14T02:32:06.444Z,16.48
2022-09-14T02:34:51.609Z,20.50
2022-09-14T02:37:36.406Z,21.80
2022-09-14T02:40:17.679Z,17.63
2022-09-14T02:42:59.337Z,22.02
2022-09-14T02:47:55.443Z,15.57
2022-09-14T02:50:28.085Z,18.92
2022-09-14T02:52:59.426Z,19.10
2022-09-14T02:55:26.618Z,18.98
2022-09-14T02:58:03.238Z,14.65
2022-09-14T03:00:30.359Z,18.70
2022-09-14T03:02:56.830Z,17.63
2022-09-14T03:05:23.058Z,19.65
2022-09-14T03:07:49.295Z,18.33
2022-09-14T03:10:15.554Z,20.83
2022-09-14T03:12:41.778Z,20.55
2022-09-14T03:15:08.218Z,18.95
2022-09-14T03:17:34.415Z,19.08
2022-09-14T03:20:00.713Z,17.92
2022-09-14T03:22:26.917Z,20.30
2022-09-14T03:24:53.127Z,21.17
2022-09-14T03:27:19.316Z,19.13
2022-09-14T03:29:45.507Z,20.45
2022-09-14T03:32:12.303Z,19.25
2022-09-14T03:34:38.503Z,16.05
2022-09-14T03:37:04.766Z,18.33
2022-09-14T03:39:30.961Z,21.58
2022-09-14T03:41:57.184Z,20.92
2022-09-14T03:44:23.405Z,20.92
2022-09-14T03:46:49.640Z,21.10
2022-09-14T03:49:15.930Z,22.58
2022-09-14T03:51:42.117Z,22.30
2022-09-14T03:54:08.551Z,21.50
2022-09-14T03:56:34.755Z,20.48
2022-09-14T03:59:00.952Z,21.33
2022-09-14T04:01:27.281Z,20.42
2022-09-14T04:03:53.560Z,19.42
2022-09-14T04:06:20.093Z,25.75
2022-09-14T04:08:46.580Z,21.10
2022-09-14T04:11:15.814Z,20.17
2022-09-14T04:13:42.282Z,20.67
2022-09-14T04:16:08.587Z,21.45
2022-09-14T04:18:34.870Z,23.05
2022-09-14T04:21:07.852Z,20.75
2022-09-14T04:23:36.543Z,18.20
2022-09-14T04:26:13.722Z,14.90
2022-09-14T04:28:40.172Z,16.75
2022-09-14T04:31:06.480Z,15.20
2022-09-14T04:33:33.811Z,14.40
2022-09-14T04:36:00.831Z,12.77
2022-09-14T04:38:27.851Z,11.80
2022-09-14T04:40:54.056Z,11.63
2022-09-14T04:43:20.252Z,15.45
2022-09-14T04:45:46.558Z,12.18
2022-09-14T04:48:12.759Z,12.32
2022-09-14T04:50:38.991Z,13.75
2022-09-14T04:53:05.240Z,15.57
2022-09-14T04:55:31.481Z,12.07
2022-09-14T04:57:57.692Z,13.65
2022-09-14T05:00:24.020Z,12.80
2022-09-14T05:02:50.492Z,12.40
2022-09-14T05:05:16.746Z,17.15
2022-09-14T05:07:42.947Z,14.27
2022-09-14T05:10:09.264Z,15.00
2022-09-14T05:12:35.475Z,14.45
2022-09-14T05:15:01.751Z,13.27
2022-09-14T05:17:27.944Z,14.95
2022-09-14T05:19:54.324Z,14.88
2022-09-14T05:22:21.350Z,11.90
2022-09-14T05:24:47.530Z,12.88
2022-09-14T05:27:13.732Z,15.73
2022-09-14T05:29:40.188Z,14.35
2022-09-14T05:32:06.748Z,15.88
2022-09-14T05:34:33.020Z,13.60
2022-09-14T05:36:59.243Z,12.63
2022-09-14T05:39:25.496Z,14.95
2022-09-14T05:41:51.903Z,13.48
2022-09-14T05:44:18.318Z,13.35
2022-09-14T05:46:44.592Z,12.75
2022-09-14T05:49:10.883Z,13.60
2022-09-14T05:51:37.094Z,12.52
2022-09-14T05:54:09.197Z,12.15
2022-09-14T05:56:35.388Z,11.05
2022-09-14T05:59:01.622Z,10.70
2022-09-14T06:01:29.458Z,12.23
2022-09-14T06:03:56.814Z,13.10
2022-09-14T06:06:23.771Z,9.27
2022-09-14T06:08:52.374Z,8.98
2022-09-14T06:11:19.996Z,9.52
2022-09-14T06:13:49.844Z,9.43
2022-09-14T06:16:17.314Z,7.20
2022-09-14T06:18:44.320Z,8.57
2022-09-14T06:21:12.130Z,7.97
2022-09-14T06:23:38.368Z,6.32
2022-09-14T06:26:04.957Z,6.13
2022-09-14T06:28:31.502Z,6.60
2022-09-14T06:30:57.930Z,7.43
2022-09-14T06:33:24.415Z,8.82
2022-09-14T06:35:56.691Z,6.10
2022-09-14T06:38:23.083Z,6.00
2022-09-14T06:40:56.922Z,6.20
2022-09-14T06:43:26.804Z,6.88
2022-09-14T06:46:03.753Z,8.80
2022-09-14T06:48:31.230Z,7.55
2022-09-14T06:50:57.693Z,7.13
2022-09-14T06:53:24.126Z,6.20
2022-09-14T06:55:50.570Z,7.15
2022-09-14T06:58:16.827Z,6.95
2022-09-14T07:00:43.076Z,7.10
2022-09-14T07:03:09.309Z,9.50
2022-09-14T07:05:35.573Z,6.45
2022-09-14T07:08:01.957Z,5.95
2022-09-14T07:10:28.274Z,7.15
2022-09-14T07:12:55.256Z,5.80
2022-09-14T07:15:21.764Z,5.85
2022-09-14T07:17:47.970Z,4.63
2022-09-14T07:20:15.537Z,4.43
2022-09-14T07:22:42.040Z,6.47
2022-09-14T07:25:08.762Z,4.60
2022-09-14T07:27:35.089Z,3.88
2022-09-14T07:30:01.433Z,4.40
2022-09-14T07:32:27.667Z,4.20
2022-09-14T07:34:53.917Z,4.60
2022-09-14T07:37:20.104Z,4.65
2022-09-14T07:39:46.368Z,4.80
2022-09-14T07:42:12.636Z,4.75
2022-09-14T07:44:38.806Z,4.30
2022-09-14T07:47:05.095Z,7.45
2022-09-14T07:49:31.362Z,5.30
2022-09-14T07:51:57.576Z,5.00
2022-09-14T07:54:23.817Z,4.05
2022-09-14T07:56:50.519Z,4.50
2022-09-14T07:59:35.170Z,4.97
2022-09-14T08:02:02.682Z,4.43
2022-09-14T08:04:29.029Z,4.50
2022-09-14T08:06:55.234Z,5.28
2022-09-14T08:09:21.408Z,4.97
2022-09-14T08:11:47.623Z,5.70
2022-09-14T08:14:14.049Z,5.15
2022-09-14T08:16:40.643Z,4.55
2022-09-14T08:19:10.687Z,4.13
2022-09-14T08:21:37.012Z,4.70
2022-09-14T08:24:04.150Z,5.60
2022-09-14T08:26:31.263Z,5.80
2022-09-14T08:28:59.592Z,5.60
2022-09-14T08:31:26.945Z,4.75
2022-09-14T08:33:54.892Z,4.85
2022-09-14T08:36:21.704Z,3.50
2022-09-14T08:38:48.100Z,5.13
2022-09-14T08:41:26.583Z,4.50
2022-09-14T08:43:53.344Z,5.05
2022-09-14T08:46:26.766Z,4.97
2022-09-14T08:48:53.279Z,4.75
2022-09-14T08:51:19.469Z,5.10
2022-09-14T08:53:45.817Z,6.53
2022-09-14T08:56:20.526Z,5.20
2022-09-14T08:59:13.568Z,7.68
2022-09-14T09:02:01.370Z,6.68
2022-09-14T09:04:46.165Z,6.40
2022-09-14T09:07:19.972Z,8.13
2022-09-14T09:09:47.541Z,9.63
2022-09-14T09:12:21.170Z,6.50
2022-09-14T09:14:52.463Z,5.90
2022-09-14T09:17:25.214Z,6.47
2022-09-14T09:20:07.021Z,5.57
2022-09-14T09:22:38.019Z,6.13
2022-09-14T09:25:04.891Z,7.05
2022-09-14T09:27:31.138Z,6.97
2022-09-14T09:29:57.315Z,7.70
2022-09-14T09:32:24.702Z,8.07
2022-09-14T09:34:51.432Z,8.02
2022-09-14T09:37:19.098Z,7.25
2022-09-14T09:39:45.690Z,9.20
2022-09-14T09:42:17.877Z,7.78
2022-09-14T09:44:53.118Z,7.30
2022-09-14T09:47:25.380Z,7.10
2022-09-14T09:49:57.304Z,12.07
2022-09-14T09:52:23.988Z,9.63
2022-09-14T09:54:50.939Z,7.63
2022-09-14T09:57:22.950Z,9.45
2022-09-14T09:59:49.138Z,9.35
2022-09-14T10:02:21.267Z,9.15
2022-09-14T10:05:07.083Z,10.07
2022-09-14T10:07:36.929Z,10.52
2022-09-14T10:10:07.912Z,9.05
2022-09-14T10:12:34.776Z,11.73
2022-09-14T10:15:07.535Z,9.38
2022-09-14T10:17:34.022Z,13.00
2022-09-14T10:20:00.356Z,11.60
2022-09-14T10:22:33.430Z,11.65
2022-09-14T10:25:01.075Z,15.25
2022-09-14T10:27:56.397Z,10.55
2022-09-14T10:30:23.653Z,10.35
2022-09-14T10:32:54.902Z,8.95
2022-09-14T10:35:22.443Z,7.97
2022-09-14T10:38:07.470Z,8.27
2022-09-14T10:40:38.377Z,8.23
2022-09-14T10:43:10.446Z,5.53
2022-09-14T10:45:41.063Z,6.60
2022-09-14T10:48:16.211Z,8.70
2022-09-14T10:50:48.514Z,5.68
2022-09-14T10:53:15.015Z,5.90
2022-09-14T10:55:46.776Z,8.02
2022-09-14T10:58:31.543Z,6.72
2022-09-14T11:01:03.372Z,5.95
2022-09-14T11:03:32.976Z,8.00
2022-09-14T11:06:15.350Z,5.07
2022-09-14T11:08:45.233Z,6.30
2022-09-14T11:11:22.692Z,6.40
2022-09-14T11:13:55.271Z,6.38
2022-09-14T11:16:31.966Z,4.85
2022-09-14T11:18:58.347Z,5.10
2022-09-14T11:21:43.810Z,4.57
2022-09-14T11:24:10.157Z,4.88
2022-09-14T11:26:42.203Z,5.13
2022-09-14T11:29:27.336Z,4.18
2022-09-14T11:32:20.299Z,8.77
2022-09-14T11:34:54.512Z,5.68
2022-09-14T11:37:24.206Z,7.70
2022-09-14T11:40:13.771Z,6.68
2022-09-14T11:42:52.323Z,5.82
2022-09-14T11:45:22.824Z,7.20
2022-09-14T11:47:55.211Z,6.72
2022-09-14T11:50:29.873Z,6.38
2022-09-14T11:53:01.017Z,6.78
2022-09-14T11:55:27.538Z,6.10
2022-09-14T11:57:53.803Z,6.15
2022-09-14T12:00:19.997Z,6.10
2022-09-14T12:02:58.334Z,6.30
2022-09-14T12:05:26.208Z,8.60
2022-09-14T12:07:59.843Z,5.80
2022-09-14T12:10:26.910Z,5.65
2022-09-14T12:12:54.069Z,6.10
2022-09-14T12:15:26.364Z,4.95
2022-09-14T12:18:07.617Z,4.95
2022-09-14T12:20:33.875Z,6.03
2022-09-14T12:23:12.314Z,8.73
2022-09-14T12:25:39.550Z,6.00
2022-09-14T12:28:32.069Z,5.53
2022-09-14T12:30:58.345Z,9.35
2022-09-14T12:33:33.983Z,7.55
2022-09-14T12:36:00.988Z,8.57
2022-09-14T12:38:39.113Z,7.22
2022-09-14T12:41:08.341Z,6.40
2022-09-14T12:43:37.579Z,5.78
2022-09-14T12:46:05.127Z,6.25
2022-09-14T12:48:43.422Z,5.85
2022-09-14T12:51:10.318Z,4.60
2022-09-14T12:53:36.571Z,6.60
2022-09-14T12:56:04.778Z,4.72
2022-09-14T12:58:41.801Z,5.28
2022-09-14T13:01:31.519Z,4.40
2022-09-14T13:03:58.174Z,5.47
2022-09-14T13:06:34.766Z,4.47
2022-09-14T13:09:02.621Z,5.72
2022-09-14T13:11:32.696Z,4.78
2022-09-14T13:13:59.915Z,9.55
2022-09-14T13:16:42.468Z,5.57
2022-09-14T13:19:28.699Z,5.60
2022-09-14T13:21:56.345Z,4.05
2022-09-14T13:24:24.345Z,4.93
2022-09-14T13:26:50.700Z,4.53
2022-09-14T13:29:16.967Z,4.95
2022-09-14T13:31:44.303Z,4.95
2022-09-14T13:34:18.329Z,6.68
2022-09-14T13:36:44.614Z,4.95
2022-09-14T13:39:19.858Z,5.03
2022-09-14T13:41:46.115Z,4.20
2022-09-14T13:44:12.443Z,4.15
2022-09-14T13:46:38.797Z,4.20
2022-09-14T13:49:06.400Z,4.05
2022-09-14T13:51:32.794Z,4.10
2022-09-14T13:54:15.238Z,4.10
2022-09-14T13:56:41.487Z,4.05
2022-09-14T13:59:21.454Z,4.60
2022-09-14T14:01:50.520Z,4.90
2022-09-14T14:04:33.477Z,2.97
2022-09-14T14:07:04.821Z,5.50
2022-09-14T14:09:46.511Z,4.60
2022-09-14T14:12:20.713Z,5.65
2022-09-14T14:14:53.728Z,4.18
2022-09-14T14:17:23.971Z,4.68
2022-09-14T14:19:52.151Z,4.70
2022-09-14T14:22:19.533Z,3.60
2022-09-14T14:25:11.694Z,2.60
2022-09-14T14:27:32.963Z,3.08
2022-09-14T14:30:00.451Z,3.10
2022-09-14T14:32:27.290Z,2.33
2022-09-14T14:34:54.096Z,2.60
2022-09-14T14:37:20.942Z,3.15
2022-09-14T14:39:49.665Z,4.70
2022-09-14T14:42:16.405Z,5.78
2022-09-14T14:44:43.770Z,12.15
2022-09-14T14:47:13.153Z,3.85
2022-09-14T14:49:39.479Z,2.55
2022-09-14T14:52:06.684Z,2.83
2022-09-14T14:54:33.035Z,3.08
2022-09-14T14:56:59.292Z,2.63
2022-09-14T14:59:27.260Z,2.75
2022-09-14T15:01:53.974Z,3.03
2022-09-14T15:04:20.284Z,3.58
2022-09-14T15:06:47.116Z,3.13
2022-09-14T15:09:18.113Z,2.78
2022-09-14T15:11:44.626Z,3.20
2022-09-14T15:14:11.482Z,3.88
2022-09-14T15:16:37.901Z,3.40
2022-09-14T15:19:04.200Z,3.85
2022-09-14T15:21:30.433Z,4.18
2022-09-14T15:23:58.725Z,4.50
2022-09-14T15:26:25.559Z,3.35
2022-09-14T15:28:52.525Z,4.18
2022-09-14T15:31:19.038Z,4.63
2022-09-14T15:33:45.319Z,3.47
2022-09-14T15:36:12.166Z,4.60
2022-09-14T15:38:38.639Z,4.25
2022-09-14T15:41:05.074Z,3.90
2022-09-14T15:43:31.249Z,3.95
2022-09-14T15:46:03.626Z,5.15
2022-09-14T15:48:29.916Z,4.13
2022-09-14T15:50:57.699Z,5.75
2022-09-14T15:53:23.927Z,5.35
2022-09-14T15:55:50.288Z,3.80
2022-09-14T15:58:16.514Z,4.05
2022-09-14T16:00:43.974Z,4.63
2022-09-14T16:03:10.287Z,4.43
2022-09-14T16:05:39.701Z,6.28
2022-09-14T16:08:06.274Z,5.05
2022-09-14T16:10:32.672Z,5.63
2022-09-14T16:12:58.886Z,5.45
2022-09-14T16:15:25.332Z,5.18
2022-09-14T16:17:52.534Z,5.28
2022-09-14T16:20:19.729Z,6.50
2022-09-14T16:22:47.518Z,6.30
2022-09-14T16:25:14.468Z,5.80
2022-09-14T16:27:40.699Z,5.35
2022-09-14T16:30:07.184Z,5.55
2022-09-14T16:32:33.442Z,7.93
2022-09-14T16:34:59.876Z,8.02
2022-09-14T16:37:26.354Z,6.72
2022-09-14T16:39:52.686Z,7.97
2022-09-14T16:42:18.912Z,8.18
2022-09-14T16:44:45.132Z,7.88
2022-09-14T16:47:11.318Z,9.00
2022-09-14T16:49:39.210Z,8.57
2022-09-14T16:52:05.646Z,9.40
2022-09-14T16:54:31.843Z,7.47
2022-09-14T16:56:59.631Z,7.78
2022-09-14T16:59:26.635Z,7.72
2022-09-14T17:01:55.023Z,8.68
2022-09-14T17:04:21.941Z,8.70
2022-09-14T17:06:49.959Z,8.77
2022-09-14T17:09:17.908Z,9.05
2022-09-14T17:11:44.201Z,9.55
2022-09-14T17:14:14.768Z,9.82
2022-09-14T17:16:41.035Z,9.63
2022-09-14T17:19:07.743Z,9.20
2022-09-14T17:21:35.310Z,13.75
2022-09-14T17:24:02.422Z,9.68
2022-09-14T17:26:28.706Z,9.45
2022-09-14T17:28:55.710Z,8.60
2022-09-14T17:31:23.294Z,7.78
2022-09-14T17:33:49.831Z,7.32
2022-09-14T17:36:16.292Z,7.82
2022-09-14T17:38:43.332Z,7.70
2022-09-14T17:41:11.243Z,8.73
2022-09-14T17:43:38.024Z,8.60
2022-09-14T17:46:05.464Z,8.70
2022-09-14T17:48:33.319Z,8.10
2022-09-14T17:51:03.508Z,7.40
2022-09-14T17:53:29.728Z,8.30
2022-09-14T17:56:01.234Z,7.47
2022-09-14T17:58:27.465Z,7.13
2022-09-14T18:01:05.110Z,8.32
2022-09-14T18:03:31.533Z,7.43
2022-09-14T18:05:57.755Z,8.38
2022-09-14T18:08:24.008Z,7.28
2022-09-14T18:10:50.246Z,9.02
2022-09-14T18:13:16.468Z,7.75
2022-09-14T18:15:42.669Z,6.95
2022-09-14T18:18:09.151Z,6.93
2022-09-14T18:20:37.070Z,6.32
2022-09-14T18:23:03.298Z,7.55
2022-09-14T18:25:29.793Z,6.72
2022-09-14T18:27:56.054Z,6.07
2022-09-14T18:30:22.291Z,5.65
2022-09-14T18:32:48.584Z,5.60
2022-09-14T18:35:15.147Z,7.82
2022-09-14T18:37:41.444Z,6.15
2022-09-14T18:40:08.107Z,7.28
2022-09-14T18:42:34.400Z,6.60
2022-09-14T18:45:00.645Z,7.65
2022-09-14T18:47:27.012Z,5.55
2022-09-14T18:49:54.211Z,7.97
2022-09-14T18:52:20.463Z,8.63
2022-09-14T18:54:46.718Z,8.02
2022-09-14T18:57:12.973Z,7.97
2022-09-14T18:59:39.238Z,6.45
2022-09-14T19:02:05.937Z,7.40
2022-09-14T19:04:32.175Z,7.13
2022-09-14T19:06:58.421Z,7.07
2022-09-14T19:09:24.788Z,6.38
2022-09-14T19:11:50.987Z,7.35
2022-09-14T19:14:17.414Z,6.90
2022-09-14T19:16:43.690Z,6.93
2022-09-14T19:19:11.196Z,13.48
2022-09-14T19:21:37.457Z,8.98
2022-09-14T19:24:07.767Z,9.43
2022-09-14T19:26:43.924Z,8.00
2022-09-14T19:29:11.235Z,9.82
2022-09-14T19:31:37.711Z,11.27
2022-09-14T19:34:04.926Z,9.45
2022-09-14T19:36:31.644Z,8.63
2022-09-14T19:39:01.724Z,10.35
2022-09-14T19:41:28.012Z,12.98
2022-09-14T19:43:54.368Z,8.73
2022-09-14T19:46:23.196Z,10.02
2022-09-14T19:48:49.563Z,11.38
2022-09-14T19:51:19.023Z,10.68
2022-09-14T19:53:46.630Z,11.02
2022-09-14T19:56:14.202Z,14.27
2022-09-14T19:58:44.868Z,10.73
2022-09-14T20:01:11.266Z,13.10
2022-09-14T20:03:38.839Z,16.90
2022-09-14T20:06:06.632Z,13.77
2022-09-14T20:08:33.433Z,15.35
2022-09-14T20:11:03.701Z,16.40
2022-09-14T20:13:29.903Z,15.57
2022-09-14T20:15:56.214Z,13.07
2022-09-14T20:18:22.541Z,15.27
2022-09-14T20:20:48.795Z,14.55
2022-09-14T20:23:15.011Z,16.17
2022-09-14T20:25:41.208Z,18.05
2022-09-14T20:28:07.689Z,17.15
2022-09-14T20:30:33.943Z,19.73
2022-09-14T20:33:00.155Z,16.88
2022-09-14T20:35:26.547Z,15.70
2022-09-14T20:37:52.787Z,19.40
2022-09-14T20:40:19.127Z,20.42
2022-09-14T20:42:45.406Z,17.73
2022-09-14T20:45:11.792Z,19.85
2022-09-14T20:47:37.990Z,19.20
2022-09-14T20:50:04.397Z,18.92
2022-09-14T20:52:31.761Z,20.75
2022-09-14T20:54:57.962Z,22.52
2022-09-14T20:57:24.200Z,19.75
2022-09-14T20:59:50.481Z,90.40
2022-09-14T21:02:16.813Z,25.40
2022-09-14T21:04:43.153Z,23.25
2022-09-14T21:07:10.623Z,25.58
2022-09-14T21:09:36.875Z,24.83
2022-09-14T21:12:03.175Z,23.30
2022-09-14T21:14:29.707Z,22.42
2022-09-14T21:16:56.770Z,21.20
2022-09-14T21:19:24.443Z,25.98
2022-09-14T21:21:50.776Z,24.55
2022-09-14T21:24:17.777Z,25.55
2022-09-14T21:26:44.605Z,25.65
2022-09-14T21:29:12.869Z,26.77
2022-09-14T21:31:39.190Z,25.10
2022-09-14T21:34:06.659Z,32.58
2022-09-14T21:36:37.816Z,28.15
2022-09-14T21:39:05.719Z,24.88
2022-09-14T21:41:32.338Z,29.35
2022-09-14T21:43:58.945Z,28.75
2022-09-14T21:46:25.567Z,27.98
2022-09-14T21:48:52.302Z,28.40
2022-09-14T21:51:21.630Z,27.67
2022-09-14T21:53:52.378Z,27.42
2022-09-14T21:56:19.411Z,27.13
2022-09-14T21:58:49.667Z,25.98
2022-09-14T22:01:16.351Z,23.83
2022-09-14T22:03:43.246Z,27.88
2022-09-14T22:06:11.563Z,27.23
2022-09-14T22:08:37.802Z,25.60
2022-09-14T22:11:09.144Z,28.05
2022-09-14T22:13:35.318Z,26.08
2022-09-14T22:16:10.478Z,23.25
2022-09-14T22:18:37.510Z,23.65
2022-09-14T22:21:04.539Z,27.75
2022-09-14T22:23:31.418Z,23.00
2022-09-14T22:25:58.344Z,22.35
2022-09-14T22:28:25.056Z,25.70
2022-09-14T22:30:52.189Z,23.77
2022-09-14T22:33:19.073Z,27.00
2022-09-14T22:35:55.346Z,28.20
2022-09-14T22:38:22.566Z,20.60
2022-09-14T22:40:59.416Z,23.20
2022-09-14T22:43:26.361Z,22.17
2022-09-14T22:45:52.747Z,24.48
2022-09-14T22:48:19.503Z,26.40
2022-09-14T22:50:46.653Z,26.58
2022-09-14T22:53:12.960Z,26.92
2022-09-14T22:55:39.934Z,24.58
2022-09-14T22:58:06.414Z,20.58
2022-09-14T23:00:33.983Z,24.77
2022-09-14T23:03:00.609Z,27.75
2022-09-14T23:05:26.880Z,24.00
2022-09-14T23:07:53.154Z,24.92
2022-09-14T23:10:19.383Z,25.92
2022-09-14T23:12:45.748Z,25.13
2022-09-14T23:15:11.948Z,24.20
2022-09-14T23:17:38.179Z,24.58
2022-09-14T23:20:05.014Z,23.65
2022-09-14T23:22:31.232Z,23.17
2022-09-14T23:24:57.408Z,23.95
2022-09-14T23:27:23.716Z,21.35
2022-09-14T23:29:49.946Z,24.13
2022-09-14T23:32:16.164Z,26.45
2022-09-14T23:34:42.480Z,23.55
2022-09-14T23:37:08.655Z,26.40
2022-09-14T23:39:34.861Z,23.83
2022-09-14T23:42:01.176Z,21.45
2022-09-14T23:44:27.425Z,23.40
2022-09-14T23:46:53.616Z,20.88
2022-09-14T23:49:19.823Z,27.00
2022-09-14T23:51:46.090Z,20.52
2022-09-14T23:54:12.551Z,24.02
2022-09-14T23:56:38.761Z,27.15
2022-09-14T23:59:05.905Z,27.30
